Time;durP1;ratioP1;P1;durP2;ratioP2;P2;SDS_P1;SDS_P2;PMS_P1;PMS_P2;Temp;Humidity;BMP_temperature;BMP_pressure;BME280_temperature;BME280_humidity;BME280_pressure;Samples;Min_cycle;Max_cycle;Signal;HPM_P1;HPM_P2
2021/01/20 00:06:12;;;;;;;12.35;10.35;;;;;;;;;;4355276;28;20465;-55
2021/01/20 00:08:38;;;;;;;11.90;10.35;;;;;;;;;;4219373;34;20111;-55
2021/01/20 00:11:04;;;;;;;10.57;9.48;;;;;;;;;;4218984;34;20148;-55
2021/01/20 00:13:30;;;;;;;11.68;10.48;;;;;;;;;;4218991;34;20109;-55
2021/01/20 00:15:56;;;;;;;12.23;10.50;;;;;;;;;;4219047;34;20496;-55
2021/01/20 00:18:21;;;;;;;11.45;10.32;;;;;;;;;;4219239;34;20196;-55
2021/01/20 00:20:47;;;;;;;12.27;10.23;;;;;;;;;;4219059;34;20193;-55
2021/01/20 00:23:13;;;;;;;11.12;10.02;;;;;;;;;;4218977;34;20106;-56
2021/01/20 00:25:40;;;;;;;11.82;10.70;;;;;;;;;;4219036;34;20136;-55
2021/01/20 00:28:05;;;;;;;11.68;10.25;;;;;;;;;;4218943;34;20223;-55
2021/01/20 00:30:31;;;;;;;11.63;10.40;;;;;;;;;;4219075;34;20149;-55
2021/01/20 00:33:00;;;;;;;12.25;11.00;;;;;;;;;;4218898;34;20141;-55
2021/01/20 00:35:26;;;;;;;11.38;10.00;;;;;;;;;;4219172;34;20100;-54
2021/01/20 00:37:52;;;;;;;13.35;10.60;;;;;;;;;;4218898;34;20477;-54
2021/01/20 00:40:18;;;;;;;10.93;9.82;;;;;;;;;;4218894;34;20192;-55
2021/01/20 00:42:44;;;;;;;11.93;10.68;;;;;;;;;;4218774;34;20503;-56
2021/01/20 00:45:10;;;;;;;11.50;10.30;;;;;;;;;;4218553;34;20148;-55
2021/01/20 00:47:37;;;;;;;12.82;10.88;;;;;;;;;;4218724;34;20113;-56
2021/01/20 00:50:06;;;;;;;12.25;10.95;;;;;;;;;;4218680;34;20212;-56
2021/01/20 00:52:32;;;;;;;13.18;10.65;;;;;;;;;;4218953;34;20098;-56
2021/01/20 00:54:58;;;;;;;12.63;11.25;;;;;;;;;;4218743;34;20535;-56
2021/01/20 00:57:23;;;;;;;11.90;10.32;;;;;;;;;;4217774;34;20136;-56
2021/01/20 00:59:49;;;;;;;12.48;10.90;;;;;;;;;;4218735;34;20558;-56
2021/01/20 01:02:15;;;;;;;14.40;11.10;;;;;;;;;;4218620;34;20530;-57
2021/01/20 01:04:41;;;;;;;12.95;11.35;;;;;;;;;;4218402;34;20520;-56
2021/01/20 01:07:07;;;;;;;13.50;11.38;;;;;;;;;;4218502;34;20093;-57
2021/01/20 01:09:35;;;;;;;12.10;10.90;;;;;;;;;;4218518;34;20094;-55
2021/01/20 01:12:01;;;;;;;12.98;10.65;;;;;;;;;;4218573;34;20202;-57
2021/01/20 01:14:27;;;;;;;13.55;11.52;;;;;;;;;;4218343;34;20513;-56
2021/01/20 01:16:53;;;;;;;12.98;11.38;;;;;;;;;;4218535;34;20184;-56
2021/01/20 01:19:19;;;;;;;13.07;11.77;;;;;;;;;;4218431;34;20179;-55
2021/01/20 01:21:44;;;;;;;12.80;11.45;;;;;;;;;;4218411;34;20237;-56
2021/01/20 01:24:10;;;;;;;12.35;10.95;;;;;;;;;;4218637;34;20123;-56
2021/01/20 01:26:36;;;;;;;12.57;11.02;;;;;;;;;;4218565;34;20173;-56
2021/01/20 01:29:02;;;;;;;12.60;11.27;;;;;;;;;;4218724;34;20105;-56
2021/01/20 01:31:28;;;;;;;13.20;11.57;;;;;;;;;;4218288;34;20094;-56
2021/01/20 01:33:53;;;;;;;12.45;11.15;;;;;;;;;;4218316;34;20168;-56
2021/01/20 01:36:19;;;;;;;12.77;11.48;;;;;;;;;;4218163;34;20131;-56
2021/01/20 01:38:45;;;;;;;14.18;12.52;;;;;;;;;;4218129;34;20122;-56
2021/01/20 01:41:11;;;;;;;11.70;10.50;;;;;;;;;;4218152;34;20121;-55
2021/01/20 01:43:37;;;;;;;13.32;11.65;;;;;;;;;;4218475;34;20097;-56
2021/01/20 01:46:03;;;;;;;13.32;11.77;;;;;;;;;;4218108;34;20198;-57
2021/01/20 01:48:28;;;;;;;12.37;10.85;;;;;;;;;;4218349;34;20086;-56
2021/01/20 01:50:54;;;;;;;12.15;10.80;;;;;;;;;;4218157;34;20136;-56
2021/01/20 01:53:20;;;;;;;11.65;10.45;;;;;;;;;;4218119;34;20139;-56
2021/01/20 01:55:49;;;;;;;13.13;11.73;;;;;;;;;;4218043;34;20537;-56
2021/01/20 01:58:15;;;;;;;12.37;11.07;;;;;;;;;;4218295;34;20122;-56
2021/01/20 02:00:41;;;;;;;12.45;10.98;;;;;;;;;;4218235;34;20197;-57
2021/01/20 02:03:06;;;;;;;13.00;11.63;;;;;;;;;;4218019;34;20098;-57
2021/01/20 02:05:32;;;;;;;12.32;11.12;;;;;;;;;;4217910;34;20117;-56
2021/01/20 02:07:58;;;;;;;13.85;11.93;;;;;;;;;;4217995;34;20120;-56
2021/01/20 02:10:24;;;;;;;12.18;10.98;;;;;;;;;;4207045;34;20200;-57
2021/01/20 02:13:09;;;;;;;14.30;11.57;;;;;;;;;;4220405;34;20124;-57
2021/01/20 02:18:35;;;;;;;12.85;11.55;;;;;;;;;;4209787;34;20149;-57
2021/01/20 02:21:26;;;;;;;13.60;11.63;;;;;;;;;;4207336;34;20090;-58
2021/01/20 02:23:51;;;;;;;13.35;12.02;;;;;;;;;;4220060;34;20125;-57
2021/01/20 02:26:33;;;;;;;11.93;10.68;;;;;;;;;;4195421;34;20524;-57
2021/01/20 02:29:20;;;;;;;12.75;11.20;;;;;;;;;;4220167;34;20213;-57
2021/01/20 02:31:46;;;;;;;13.82;11.10;;;;;;;;;;4220000;34;20109;-56
2021/01/20 02:34:14;;;;;;;13.93;11.12;;;;;;;;;;4195578;34;20101;-57
2021/01/20 02:36:40;;;;;;;12.98;11.57;;;;;;;;;;4207235;34;20096;-57
2021/01/20 02:39:06;;;;;;;13.10;11.75;;;;;;;;;;4195684;34;20121;-58
2021/01/20 02:41:32;;;;;;;13.07;10.80;;;;;;;;;;4206949;34;20597;-57
2021/01/20 02:44:02;;;;;;;13.05;11.75;;;;;;;;;;4219908;34;20131;-57
2021/01/20 02:46:28;;;;;;;12.50;11.20;;;;;;;;;;4219710;34;20132;-56
2021/01/20 02:48:54;;;;;;;12.10;10.57;;;;;;;;;;4219823;34;20144;-57
2021/01/20 02:51:28;;;;;;;12.60;11.30;;;;;;;;;;4219840;34;20204;-57
2021/01/20 02:53:54;;;;;;;11.82;10.63;;;;;;;;;;4195881;34;20502;-57
2021/01/20 02:56:20;;;;;;;12.37;11.15;;;;;;;;;;4206823;34;20185;-57
2021/01/20 02:58:46;;;;;;;13.02;11.20;;;;;;;;;;4206795;34;20461;-56
2021/01/20 03:01:13;;;;;;;11.85;10.63;;;;;;;;;;4206905;34;20526;-58
2021/01/20 03:03:39;;;;;;;12.98;11.23;;;;;;;;;;4206666;34;20132;-57
2021/01/20 03:06:04;;;;;;;15.18;12.43;;;;;;;;;;4192668;34;20210;-58
2021/01/20 03:08:30;;;;;;;14.05;10.95;;;;;;;;;;4204307;34;20195;-58
2021/01/20 03:10:56;;;;;;;13.32;11.93;;;;;;;;;;4192852;34;20108;-57
2021/01/20 03:13:22;;;;;;;15.20;13.70;;;;;;;;;;4192682;34;20445;-56
2021/01/20 03:15:48;;;;;;;19.12;17.12;;;;;;;;;;4204319;34;20141;-57
2021/01/20 03:18:14;;;;;;;15.07;12.73;;;;;;;;;;4192804;34;20553;-57
2021/01/20 03:20:40;;;;;;;15.50;11.77;;;;;;;;;;4205141;34;20608;-56
2021/01/20 03:23:06;;;;;;;13.90;12.40;;;;;;;;;;4205631;34;20756;-59
2021/01/20 03:25:32;;;;;;;17.50;13.32;;;;;;;;;;4205600;34;20110;-55
2021/01/20 03:27:57;;;;;;;16.95;15.15;;;;;;;;;;4205589;34;20118;-59
2021/01/20 03:30:23;;;;;;;17.37;14.55;;;;;;;;;;4205611;34;20148;-59
2021/01/20 03:32:49;;;;;;;17.70;13.48;;;;;;;;;;4205586;34;20465;-63
2021/01/20 03:35:15;;;;;;;17.95;14.15;;;;;;;;;;4205458;34;20113;-61
2021/01/20 03:37:42;;;;;;;17.12;13.00;;;;;;;;;;4205542;34;20120;-53
2021/01/20 03:40:08;;;;;;;15.07;13.52;;;;;;;;;;4205497;34;20130;-56
2021/01/20 03:42:34;;;;;;;17.25;13.13;;;;;;;;;;4204199;34;20204;-56
2021/01/20 03:45:00;;;;;;;17.48;15.00;;;;;;;;;;4205683;34;20118;-58
2021/01/20 03:47:26;;;;;;;14.75;13.25;;;;;;;;;;4205369;34;20548;-57
2021/01/20 03:49:52;;;;;;;16.58;13.75;;;;;;;;;;4205470;34;20156;-57
2021/01/20 03:52:17;;;;;;;17.73;14.23;;;;;;;;;;4205609;34;20121;-59
2021/01/20 03:54:43;;;;;;;15.20;13.60;;;;;;;;;;4205384;34;20130;-57
2021/01/20 03:57:09;;;;;;;16.02;13.57;;;;;;;;;;4205566;34;20094;-56
2021/01/20 03:59:35;;;;;;;15.75;13.80;;;;;;;;;;4205336;34;20136;-57
2021/01/20 04:02:03;;;;;;;16.85;13.82;;;;;;;;;;4204017;34;20129;-57
2021/01/20 04:04:29;;;;;;;15.68;14.00;;;;;;;;;;4205754;34;20163;-59
2021/01/20 04:06:55;;;;;;;15.20;13.25;;;;;;;;;;4219056;34;20596;-55
2021/01/20 04:09:21;;;;;;;15.30;13.77;;;;;;;;;;4219010;34;20189;-59
2021/01/20 04:11:47;;;;;;;16.25;14.43;;;;;;;;;;4219175;34;20530;-58
2021/01/20 04:14:13;;;;;;;15.32;13.68;;;;;;;;;;4219038;34;20125;-55
2021/01/20 04:16:39;;;;;;;18.25;14.50;;;;;;;;;;4219003;34;20475;-55
2021/01/20 04:19:04;;;;;;;16.75;14.75;;;;;;;;;;4194408;34;20117;-56
2021/01/20 04:21:30;;;;;;;16.50;13.62;;;;;;;;;;4218983;34;20216;-56
2021/01/20 04:23:56;;;;;;;15.80;13.80;;;;;;;;;;4206083;34;20117;-57
2021/01/20 04:26:22;;;;;;;15.00;13.38;;;;;;;;;;4218754;34;20137;-57
2021/01/20 04:28:48;;;;;;;17.15;13.55;;;;;;;;;;4218912;34;20525;-56
2021/01/20 04:31:14;;;;;;;15.70;14.02;;;;;;;;;;4218778;34;20098;-56
2021/01/20 04:33:39;;;;;;;15.80;13.50;;;;;;;;;;4218784;34;20106;-57
2021/01/20 04:36:06;;;;;;;17.65;12.90;;;;;;;;;;4219035;34;20197;-56
2021/01/20 04:38:33;;;;;;;14.13;12.63;;;;;;;;;;4205958;34;20123;-57
2021/01/20 04:40:59;;;;;;;14.30;12.80;;;;;;;;;;4218726;34;20539;-57
2021/01/20 04:43:25;;;;;;;14.87;13.30;;;;;;;;;;4218883;34;20114;-56
2021/01/20 04:45:52;;;;;;;15.20;13.43;;;;;;;;;;4218628;34;20117;-57
2021/01/20 04:48:19;;;;;;;15.57;12.95;;;;;;;;;;4218794;34;20193;-57
2021/01/20 04:50:46;;;;;;;15.05;13.25;;;;;;;;;;4218682;34;20220;-56
2021/01/20 04:53:12;;;;;;;15.40;13.50;;;;;;;;;;4206092;34;20133;-57
2021/01/20 04:55:41;;;;;;;16.20;13.98;;;;;;;;;;4218821;34;20121;-56
2021/01/20 04:58:09;;;;;;;15.48;13.25;;;;;;;;;;4206033;34;20129;-57
2021/01/20 05:00:35;;;;;;;14.35;12.85;;;;;;;;;;4218788;34;20224;-57
2021/01/20 05:03:03;;;;;;;15.30;13.70;;;;;;;;;;4205724;34;20184;-57
2021/01/20 05:05:29;;;;;;;16.62;13.48;;;;;;;;;;4203210;34;20471;-55
2021/01/20 05:07:54;;;;;;;17.20;13.32;;;;;;;;;;4203610;34;20121;-57
2021/01/20 05:10:20;;;;;;;14.52;13.02;;;;;;;;;;4204730;34;20105;-57
2021/01/20 05:12:46;;;;;;;15.25;13.62;;;;;;;;;;4204961;34;20114;-57
2021/01/20 05:15:16;;;;;;;16.52;14.38;;;;;;;;;;4204536;34;20514;-57
2021/01/20 05:17:55;;;;;;;14.93;13.43;;;;;;;;;;4204558;34;20483;-57
2021/01/20 05:20:35;;;;;;;15.25;13.68;;;;;;;;;;4204376;34;20534;-57
2021/01/20 05:23:05;;;;;;;15.35;13.68;;;;;;;;;;4204682;34;20105;-56
2021/01/20 05:25:35;;;;;;;17.65;14.50;;;;;;;;;;4204800;34;20125;-56
2021/01/20 05:28:24;;;;;;;17.55;14.48;;;;;;;;;;4204602;34;20109;-56
2021/01/20 05:30:59;;;;;;;15.27;13.68;;;;;;;;;;4204484;34;20117;-56
2021/01/20 05:33:34;;;;;;;15.95;14.35;;;;;;;;;;4204577;34;20102;-56
2021/01/20 05:36:07;;;;;;;15.77;14.07;;;;;;;;;;4204411;34;20113;-56
2021/01/20 05:38:40;;;;;;;15.80;13.45;;;;;;;;;;4204330;34;20137;-57
2021/01/20 05:41:24;;;;;;;15.18;13.57;;;;;;;;;;4204304;34;20525;-58
2021/01/20 05:43:54;;;;;;;16.12;13.43;;;;;;;;;;4204841;34;20121;-56
2021/01/20 05:46:29;;;;;;;17.00;14.20;;;;;;;;;;4206331;34;20113;-56
2021/01/20 05:48:55;;;;;;;;;;;;;;;;;;4206823;34;20113;-56
2021/01/20 05:51:21;;;;;;;15.27;13.70;;;;;;;;;;4206652;34;19970;-57
2021/01/20 05:53:56;;;;;;;16.30;12.98;;;;;;;;;;4206392;34;20184;-57
2021/01/20 05:56:28;;;;;;;15.77;13.48;;;;;;;;;;4206547;34;20256;-57
2021/01/20 05:58:55;;;;;;;16.10;14.25;;;;;;;;;;4206328;34;20213;-57
2021/01/20 06:01:21;;;;;;;15.77;13.75;;;;;;;;;;4206124;34;20120;-56
2021/01/20 06:03:47;;;;;;;14.75;13.07;;;;;;;;;;4206493;34;20156;-56
2021/01/20 06:06:13;;;;;;;16.00;12.57;;;;;;;;;;4216733;34;20117;-56
2021/01/20 06:08:39;;;;;;;15.02;13.38;;;;;;;;;;4220132;34;20201;-56
2021/01/20 06:11:05;;;;;;;14.85;13.25;;;;;;;;;;4220068;34;20125;-57
2021/01/20 06:13:32;;;;;;;14.82;12.90;;;;;;;;;;4220265;34;20214;-56
2021/01/20 06:15:59;;;;;;;15.40;13.05;;;;;;;;;;4219951;34;20125;-57
2021/01/20 06:18:29;;;;;;;16.15;12.32;;;;;;;;;;4219981;34;20097;-56
2021/01/20 06:20:55;;;;;;;15.57;11.95;;;;;;;;;;4206866;34;20512;-57
2021/01/20 06:23:23;;;;;;;14.75;12.93;;;;;;;;;;4206948;34;20102;-56
2021/01/20 06:25:50;;;;;;;17.45;13.80;;;;;;;;;;4219941;34;20089;-57
2021/01/20 06:28:16;;;;;;;15.48;12.20;;;;;;;;;;4207009;34;20121;-57
2021/01/20 06:30:47;;;;;;;14.75;12.50;;;;;;;;;;4206963;34;20158;-56
2021/01/20 06:33:14;;;;;;;14.15;12.20;;;;;;;;;;4206881;34;20129;-55
2021/01/20 06:35:48;;;;;;;15.52;12.00;;;;;;;;;;4206646;34;20419;-56
2021/01/20 06:38:29;;;;;;;13.88;12.35;;;;;;;;;;4219713;34;20098;-56
2021/01/20 06:40:59;;;;;;;13.95;12.48;;;;;;;;;;4219680;34;20125;-56
2021/01/20 06:43:35;;;;;;;16.52;14.65;;;;;;;;;;4219741;34;20217;-56
2021/01/20 06:46:20;;;;;;;13.48;12.05;;;;;;;;;;4219522;34;20520;-56
2021/01/20 06:48:55;;;;;;;14.40;12.85;;;;;;;;;;4219576;34;20097;-57
2021/01/20 06:51:27;;;;;;;13.80;12.40;;;;;;;;;;4219794;34;20109;-56
2021/01/20 06:54:00;;;;;;;15.10;12.77;;;;;;;;;;4219581;34;20510;-57
2021/01/20 06:56:36;;;;;;;12.88;11.57;;;;;;;;;;4218519;34;20120;-58
2021/01/20 06:59:14;;;;;;;14.90;12.27;;;;;;;;;;4219554;34;20124;-57
2021/01/20 07:01:40;;;;;;;13.77;12.30;;;;;;;;;;4219469;34;20215;-57
2021/01/20 07:04:06;;;;;;;13.98;12.35;;;;;;;;;;4219490;34;20164;-57
2021/01/20 07:06:35;;;;;;;14.07;12.15;;;;;;;;;;4219525;34;20109;-56
2021/01/20 07:09:02;;;;;;;14.52;13.02;;;;;;;;;;4219410;34;20152;-57
2021/01/20 07:11:28;;;;;;;14.60;13.00;;;;;;;;;;4206564;34;20113;-57
2021/01/20 07:13:54;;;;;;;14.25;11.75;;;;;;;;;;4219664;34;20114;-57
2021/01/20 07:16:20;;;;;;;14.15;12.65;;;;;;;;;;4219553;34;20509;-56
2021/01/20 07:18:47;;;;;;;14.50;12.95;;;;;;;;;;4206377;34;20128;-56
2021/01/20 07:21:13;;;;;;;13.73;12.25;;;;;;;;;;4219539;34;20105;-56
2021/01/20 07:23:39;;;;;;;13.85;12.40;;;;;;;;;;4219297;34;20125;-56
2021/01/20 07:26:05;;;;;;;13.52;12.13;;;;;;;;;;4219190;34;20185;-56
2021/01/20 07:28:32;;;;;;;14.32;12.50;;;;;;;;;;4219258;34;20121;-56
2021/01/20 07:31:14;;;;;;;14.10;12.60;;;;;;;;;;4219608;34;20108;-55
2021/01/20 07:33:50;;;;;;;13.65;12.02;;;;;;;;;;4219598;34;20509;-56
2021/01/20 07:36:17;;;;;;;14.70;12.77;;;;;;;;;;4219335;34;20149;-56
2021/01/20 07:38:45;;;;;;;13.32;11.93;;;;;;;;;;4219583;34;20133;-56
2021/01/20 07:41:14;;;;;;;14.02;12.52;;;;;;;;;;4219286;34;20192;-56
2021/01/20 07:43:40;;;;;;;14.52;12.30;;;;;;;;;;4219180;34;20150;-56
2021/01/20 07:46:22;;;;;;;13.88;12.37;;;;;;;;;;4206295;34;20539;-57
2021/01/20 07:48:49;;;;;;;15.25;12.15;;;;;;;;;;4219579;34;20202;-56
2021/01/20 07:51:21;;;;;;;14.85;12.98;;;;;;;;;;4219189;34;20105;-55
2021/01/20 07:54:00;;;;;;;14.57;11.90;;;;;;;;;;4219241;34;20517;-55
2021/01/20 07:56:26;;;;;;;12.52;10.85;;;;;;;;;;4219397;34;20450;-51
2021/01/20 07:58:52;;;;;;;12.65;11.05;;;;;;;;;;4219304;34;20124;-56
2021/01/20 08:01:26;;;;;;;13.48;11.10;;;;;;;;;;4218850;34;20125;-58
2021/01/20 08:03:52;;;;;;;12.88;11.48;;;;;;;;;;4218849;34;20204;-56
2021/01/20 08:06:17;;;;;;;12.52;11.18;;;;;;;;;;4218483;34;20113;-55
2021/01/20 08:08:54;;;;;;;12.05;10.85;;;;;;;;;;4205986;34;20196;-57
2021/01/20 08:11:20;;;;;;;13.95;11.05;;;;;;;;;;4218884;34;20102;-56
2021/01/20 08:13:47;;;;;;;13.13;11.07;;;;;;;;;;4218804;34;20104;-56
2021/01/20 08:16:13;;;;;;;13.00;11.55;;;;;;;;;;4205921;34;20150;-56
2021/01/20 08:18:39;;;;;;;12.57;11.27;;;;;;;;;;4206067;34;20189;-56
2021/01/20 08:21:08;;;;;;;13.05;10.75;;;;;;;;;;4205651;34;20108;-57
2021/01/20 08:23:55;;;;;;;11.98;10.65;;;;;;;;;;4218767;34;20125;-55
2021/01/20 08:26:23;;;;;;;12.10;10.73;;;;;;;;;;4218885;34;20192;-53
2021/01/20 08:29:09;;;;;;;12.43;11.12;;;;;;;;;;4218970;34;20202;-55
2021/01/20 08:31:39;;;;;;;13.73;11.30;;;;;;;;;;4218546;34;20102;-56
2021/01/20 08:34:22;;;;;;;11.90;10.23;;;;;;;;;;4218626;34;20224;-57
2021/01/20 08:36:54;;;;;;;11.68;10.48;;;;;;;;;;4218820;34;20600;-56
2021/01/20 08:39:20;;;;;;;12.32;10.70;;;;;;;;;;4218677;34;20172;-56
2021/01/20 08:42:32;;;;;;;12.88;11.15;;;;;;;;;;4218842;34;20189;-56
2021/01/20 08:45:12;;;;;;;13.98;11.43;;;;;;;;;;4216232;34;20445;-56
2021/01/20 08:47:54;;;;;;;11.32;10.23;;;;;;;;;;4218969;34;20101;-54
2021/01/20 08:50:29;;;;;;;12.80;10.43;;;;;;;;;;4218598;34;20124;-56
2021/01/20 08:52:56;;;;;;;11.35;10.25;;;;;;;;;;4218993;34;20094;-56
2021/01/20 08:55:26;;;;;;;11.18;9.82;;;;;;;;;;4218817;34;20201;-57
2021/01/20 08:58:32;;;;;;;12.23;10.32;;;;;;;;;;4218692;34;20114;-57
2021/01/20 09:01:00;;;;;;;12.17;10.90;;;;;;;;;;4218583;34;20121;-57
2021/01/20 09:03:31;;;;;;;11.98;10.65;;;;;;;;;;4218454;34;20123;-57
2021/01/20 09:05:59;;;;;;;12.32;10.98;;;;;;;;;;4218343;33;20461;-56
2021/01/20 09:08:25;;;;;;;15.90;11.43;;;;;;;;;;4207936;34;20229;-57
2021/01/20 09:10:52;;;;;;;13.07;10.63;;;;;;;;;;4204119;34;20177;-56
2021/01/20 09:13:19;;;;;;;11.73;10.52;;;;;;;;;;4204221;34;20601;-57
2021/01/20 09:15:49;;;;;;;12.27;11.05;;;;;;;;;;4204602;34;20662;-57
2021/01/20 09:18:15;;;;;;;14.00;11.95;;;;;;;;;;4213182;34;20205;-57
2021/01/20 09:20:41;;;;;;;15.48;13.88;;;;;;;;;;4218511;34;20133;-57
2021/01/20 09:23:07;;;;;;;14.85;13.40;;;;;;;;;;4205249;34;20112;-57
2021/01/20 09:25:33;;;;;;;12.43;11.12;;;;;;;;;;4209445;34;20113;-57
2021/01/20 09:27:59;;;;;;;13.35;11.57;;;;;;;;;;4204116;34;20108;-57
2021/01/20 09:30:25;;;;;;;11.50;10.30;;;;;;;;;;4204326;34;20514;-57
2021/01/20 09:32:51;;;;;;;12.02;10.63;;;;;;;;;;4211453;34;20088;-57
2021/01/20 09:35:18;;;;;;;12.23;10.80;;;;;;;;;;4218146;34;20236;-57
2021/01/20 09:37:45;;;;;;;11.95;10.73;;;;;;;;;;4217785;34;20288;-56
2021/01/20 09:40:14;;;;;;;13.70;11.55;;;;;;;;;;4218212;34;20128;-56
2021/01/20 09:42:41;;;;;;;14.20;11.98;;;;;;;;;;4199074;34;20105;-56
2021/01/20 09:45:08;;;;;;;14.38;11.30;;;;;;;;;;4204085;34;20461;-54
2021/01/20 09:47:38;;;;;;;12.18;10.88;;;;;;;;;;4209350;34;20129;-52
2021/01/20 09:50:05;;;;;;;12.23;10.93;;;;;;;;;;4218339;34;20569;-56
2021/01/20 09:52:32;;;;;;;13.50;11.40;;;;;;;;;;4218167;34;20485;-54
2021/01/20 09:54:58;;;;;;;11.85;10.32;;;;;;;;;;4218026;34;20119;-57
2021/01/20 09:57:24;;;;;;;13.40;11.38;;;;;;;;;;4217800;34;20493;-57
2021/01/20 09:59:50;;;;;;;14.48;11.90;;;;;;;;;;4217542;34;20137;-51
2021/01/20 10:02:16;;;;;;;14.95;13.35;;;;;;;;;;4217824;34;20556;-52
2021/01/20 10:04:42;;;;;;;12.85;11.23;;;;;;;;;;4217916;34;20160;-54
2021/01/20 10:07:08;;;;;;;13.32;11.57;;;;;;;;;;4217716;34;20113;-51
2021/01/20 10:09:34;;;;;;;13.18;11.77;;;;;;;;;;4217519;34;20141;-52
2021/01/20 10:12:00;;;;;;;12.52;11.25;;;;;;;;;;4217684;34;20114;-52
2021/01/20 10:14:26;;;;;;;12.52;11.23;;;;;;;;;;4217590;34;20129;-53
2021/01/20 10:16:52;;;;;;;13.60;12.10;;;;;;;;;;4217555;34;20102;-50
2021/01/20 10:19:18;;;;;;;12.85;11.40;;;;;;;;;;4217453;34;20221;-52
2021/01/20 10:21:44;;;;;;;12.37;11.07;;;;;;;;;;4216725;34;20526;-56
2021/01/20 10:24:10;;;;;;;15.63;12.05;;;;;;;;;;4203751;34;20224;-56
2021/01/20 10:26:37;;;;;;;12.07;10.88;;;;;;;;;;4203531;34;20110;-57
2021/01/20 10:29:03;;;;;;;14.18;11.82;;;;;;;;;;4217414;34;20109;-55
2021/01/20 10:31:36;;;;;;;13.15;11.75;;;;;;;;;;4219482;34;20125;-54
2021/01/20 10:34:04;;;;;;;13.43;12.02;;;;;;;;;;4219882;34;20132;-54
2021/01/20 10:36:30;;;;;;;12.73;11.43;;;;;;;;;;4220006;34;20110;-51
2021/01/20 10:38:56;;;;;;;14.85;12.77;;;;;;;;;;4219459;34;20112;-49
2021/01/20 10:41:22;;;;;;;13.27;11.80;;;;;;;;;;4220020;34;20505;-50
2021/01/20 10:43:49;;;;;;;14.45;12.35;;;;;;;;;;4219502;34;20140;-55
2021/01/20 10:46:15;;;;;;;13.25;11.73;;;;;;;;;;4219583;34;20129;-56
2021/01/20 10:48:41;;;;;;;15.27;13.68;;;;;;;;;;4219034;34;20134;-53
2021/01/20 10:51:07;;;;;;;14.07;12.55;;;;;;;;;;4219726;34;20200;-54
2021/01/20 10:53:33;;;;;;;14.70;13.15;;;;;;;;;;4219389;34;20097;-56
2021/01/20 10:55:59;;;;;;;14.40;12.70;;;;;;;;;;4219384;34;20161;-52
2021/01/20 10:58:25;;;;;;;13.90;12.48;;;;;;;;;;4219157;34;20104;-55
2021/01/20 11:00:51;;;;;;;15.95;13.48;;;;;;;;;;4219120;34;20102;-54
2021/01/20 11:03:16;;;;;;;16.95;12.45;;;;;;;;;;4219221;34;20116;-55
2021/01/20 11:05:43;;;;;;;15.10;13.50;;;;;;;;;;4219201;34;20126;-56
2021/01/20 11:08:09;;;;;;;14.55;13.07;;;;;;;;;;4219287;34;20137;-56
2021/01/20 11:10:37;;;;;;;15.48;13.40;;;;;;;;;;4219242;34;20117;-56
2021/01/20 11:13:07;;;;;;;14.43;12.93;;;;;;;;;;4219254;34;20427;-53
2021/01/20 11:15:37;;;;;;;14.52;12.98;;;;;;;;;;4219373;34;20489;-57
2021/01/20 11:18:06;;;;;;;18.77;14.48;;;;;;;;;;4219176;34;20192;-51
2021/01/20 11:20:32;;;;;;;16.73;13.65;;;;;;;;;;4218945;34;20147;-55
2021/01/20 11:22:58;;;;;;;15.32;13.73;;;;;;;;;;4216177;34;20124;-53
2021/01/20 11:25:25;;;;;;;15.57;13.88;;;;;;;;;;4204529;34;20118;-55
2021/01/20 11:27:51;;;;;;;16.42;14.52;;;;;;;;;;4212288;34;20118;-50
2021/01/20 11:30:18;;;;;;;16.95;14.07;;;;;;;;;;4218906;34;20266;-52
2021/01/20 11:32:44;;;;;;;17.05;14.52;;;;;;;;;;4219020;34;20117;-52
2021/01/20 11:35:10;;;;;;;17.33;14.65;;;;;;;;;;4219216;34;20093;-51
2021/01/20 11:37:36;;;;;;;16.83;15.13;;;;;;;;;;4218963;34;20152;-51
2021/01/20 11:40:04;;;;;;;16.67;14.98;;;;;;;;;;4219241;34;20124;-53
2021/01/20 11:42:31;;;;;;;16.67;14.87;;;;;;;;;;4218621;34;20108;-54
2021/01/20 11:44:57;;;;;;;18.30;14.60;;;;;;;;;;4219166;34;20448;-54
2021/01/20 11:47:23;;;;;;;17.67;15.05;;;;;;;;;;4218942;34;20542;-55
2021/01/20 11:49:50;;;;;;;17.75;15.82;;;;;;;;;;4218853;34;20117;-55
2021/01/20 11:52:17;;;;;;;16.73;14.93;;;;;;;;;;4218551;34;20093;-54
2021/01/20 11:54:44;;;;;;;18.55;15.02;;;;;;;;;;4219017;34;20109;-51
2021/01/20 11:57:11;;;;;;;19.05;16.60;;;;;;;;;;4218815;34;20213;-53
2021/01/20 11:59:37;;;;;;;19.23;15.27;;;;;;;;;;4218666;34;20552;-55
2021/01/20 12:02:04;;;;;;;15.90;14.25;;;;;;;;;;4218833;34;20105;-54
2021/01/20 12:04:29;;;;;;;18.00;15.35;;;;;;;;;;4218769;34;20118;-54
2021/01/20 12:06:55;;;;;;;17.15;15.07;;;;;;;;;;4218879;34;20105;-55
2021/01/20 12:09:21;;;;;;;16.75;14.95;;;;;;;;;;4218702;34;20102;-57
2021/01/20 12:11:47;;;;;;;19.40;16.67;;;;;;;;;;4218587;34;20220;-53
2021/01/20 12:14:14;;;;;;;19.20;15.77;;;;;;;;;;4218672;34;20121;-53
2021/01/20 12:16:40;;;;;;;16.95;15.18;;;;;;;;;;4218954;34;20089;-55
2021/01/20 12:19:07;;;;;;;16.95;15.13;;;;;;;;;;4219067;34;20429;-51
2021/01/20 12:21:33;;;;;;;17.55;14.93;;;;;;;;;;4218484;34;20192;-55
2021/01/20 12:23:59;;;;;;;17.10;14.63;;;;;;;;;;4205365;34;20090;-55
2021/01/20 12:26:25;;;;;;;16.73;14.87;;;;;;;;;;4218706;34;20204;-53
2021/01/20 12:28:50;;;;;;;21.30;18.10;;;;;;;;;;4218527;34;20585;-51
2021/01/20 12:31:16;;;;;;;18.35;14.93;;;;;;;;;;4218709;34;20196;-55
2021/01/20 12:33:42;;;;;;;17.00;15.10;;;;;;;;;;4218568;34;20251;-52
2021/01/20 12:36:08;;;;;;;16.80;15.07;;;;;;;;;;4218631;34;20129;-54
2021/01/20 12:38:34;;;;;;;18.20;15.20;;;;;;;;;;4218485;34;20148;-49
2021/01/20 12:41:00;;;;;;;18.75;15.80;;;;;;;;;;4205527;34;20132;-54
2021/01/20 12:43:26;;;;;;;19.92;16.17;;;;;;;;;;4218489;34;20506;-55
2021/01/20 12:45:52;;;;;;;19.50;16.58;;;;;;;;;;4218421;34;20557;-49
2021/01/20 12:48:19;;;;;;;19.65;16.83;;;;;;;;;;4218448;34;20093;-51
2021/01/20 12:50:46;;;;;;;19.00;17.00;;;;;;;;;;4218393;34;20109;-51
2021/01/20 12:53:13;;;;;;;19.25;16.33;;;;;;;;;;4217581;34;20129;-51
2021/01/20 12:55:39;;;;;;;19.40;16.92;;;;;;;;;;4218452;34;20146;-51
2021/01/20 12:58:05;;;;;;;18.23;16.27;;;;;;;;;;4218015;34;20237;-51
2021/01/20 13:00:31;;;;;;;18.10;16.17;;;;;;;;;;4218692;34;20108;-54
2021/01/20 13:02:56;;;;;;;17.62;15.70;;;;;;;;;;4218542;34;20529;-56
2021/01/20 13:05:22;;;;;;;18.75;15.88;;;;;;;;;;4218203;34;20133;-54
2021/01/20 13:07:48;;;;;;;20.15;16.87;;;;;;;;;;4218098;34;20469;-51
2021/01/20 13:10:14;;;;;;;19.02;16.92;;;;;;;;;;4216690;34;21001;-54
2021/01/20 13:12:40;;;;;;;21.10;16.27;;;;;;;;;;4208516;34;20193;-53
2021/01/20 13:15:07;;;;;;;17.80;15.90;;;;;;;;;;4204610;34;20105;-50
2021/01/20 13:17:33;;;;;;;18.02;15.95;;;;;;;;;;4204438;34;20544;-51
2021/01/20 13:19:59;;;;;;;18.87;16.90;;;;;;;;;;4204448;34;20121;-48
2021/01/20 13:22:25;;;;;;;19.50;16.67;;;;;;;;;;4208660;34;20128;-48
2021/01/20 13:24:51;;;;;;;19.25;16.10;;;;;;;;;;4218208;34;20101;-48
2021/01/20 13:27:17;;;;;;;18.67;16.52;;;;;;;;;;4218008;34;20102;-49
2021/01/20 13:29:43;;;;;;;18.15;16.15;;;;;;;;;;4217723;34;20509;-52
2021/01/20 13:32:11;;;;;;;20.40;17.42;;;;;;;;;;4201868;34;20196;-49
2021/01/20 13:34:37;;;;;;;18.67;16.62;;;;;;;;;;4204152;34;20129;-51
2021/01/20 13:37:03;;;;;;;18.67;16.73;;;;;;;;;;4193813;34;20209;-54
2021/01/20 13:39:29;;;;;;;17.85;15.40;;;;;;;;;;4193886;34;20207;-55
2021/01/20 13:41:55;;;;;;;18.70;15.68;;;;;;;;;;4192719;34;20121;-56
2021/01/20 13:44:21;;;;;;;22.40;15.55;;;;;;;;;;4218143;34;20137;-53
2021/01/20 13:46:47;;;;;;;18.05;15.65;;;;;;;;;;4218086;34;20129;-52
2021/01/20 13:49:13;;;;;;;18.55;16.17;;;;;;;;;;4205046;34;20206;-52
2021/01/20 13:51:39;;;;;;;18.52;15.60;;;;;;;;;;4217584;34;20132;-55
2021/01/20 13:54:05;;;;;;;17.90;16.02;;;;;;;;;;4217940;34;20439;-53
2021/01/20 13:56:30;;;;;;;18.85;15.52;;;;;;;;;;4217908;34;20450;-57
2021/01/20 13:58:56;;;;;;;17.42;15.45;;;;;;;;;;4217633;34;20600;-57
2021/01/20 14:01:23;;;;;;;17.42;15.45;;;;;;;;;;4217551;34;20117;-57
2021/01/20 14:03:49;;;;;;;16.15;14.45;;;;;;;;;;4217649;34;20492;-58
2021/01/20 14:06:15;;;;;;;17.15;14.95;;;;;;;;;;4219569;34;20195;-58
2021/01/20 14:08:41;;;;;;;19.73;15.55;;;;;;;;;;4220075;34;21108;-57
2021/01/20 14:11:07;;;;;;;17.45;15.18;;;;;;;;;;4219976;34;20141;-59
2021/01/20 14:13:33;;;;;;;18.33;16.00;;;;;;;;;;4219596;34;20277;-52
2021/01/20 14:15:59;;;;;;;19.20;16.48;;;;;;;;;;4220029;34;20546;-54
2021/01/20 14:18:25;;;;;;;18.52;16.25;;;;;;;;;;4219934;34;20567;-53
2021/01/20 14:20:51;;;;;;;18.67;15.93;;;;;;;;;;4220003;34;20442;-52
2021/01/20 14:23:17;;;;;;;18.12;15.68;;;;;;;;;;4219992;34;20188;-52
2021/01/20 14:25:42;;;;;;;20.62;16.02;;;;;;;;;;4220055;34;20574;-51
2021/01/20 14:28:08;;;;;;;19.10;16.37;;;;;;;;;;4220158;34;20427;-53
2021/01/20 14:30:34;;;;;;;18.12;15.65;;;;;;;;;;4219992;34;20208;-52